createdAt,value
2022-11-16T00:02:43.781Z,93.95
2022-11-16T00:07:45.940Z,94.07
2022-11-16T00:12:47.953Z,94.03
2022-11-16T00:17:49.983Z,93.94
2022-11-16T00:22:52.024Z,93.83
2022-11-16T00:27:54.052Z,93.64
2022-11-16T00:33:00.615Z,93.57
2022-11-16T00:38:02.634Z,93.56
2022-11-16T00:43:04.693Z,93.62
2022-11-16T00:48:06.719Z,93.71
2022-11-16T00:53:12.891Z,93.78
2022-11-16T00:58:15.739Z,93.84
2022-11-16T01:03:17.848Z,94.03
2022-11-16T01:08:19.881Z,94.21
2022-11-16T01:13:21.970Z,94.28
2022-11-16T01:18:24.017Z,94.50
2022-11-16T01:23:26.027Z,94.58
2022-11-16T01:28:30.400Z,94.78
2022-11-16T01:33:32.526Z,94.87
2022-11-16T01:38:34.887Z,94.80
2022-11-16T01:44:01.289Z,94.79
2022-11-16T01:49:24.149Z,94.92
2022-11-16T01:54:27.396Z,95.00
2022-11-16T01:59:30.315Z,95.04
2022-11-16T02:04:32.485Z,95.03
2022-11-16T02:09:59.370Z,95.09
2022-11-16T02:15:01.350Z,95.07
2022-11-16T02:20:29.446Z,95.07
2022-11-16T02:25:40.086Z,95.17
2022-11-16T02:30:47.131Z,95.16
2022-11-16T02:35:55.254Z,95.24
2022-11-16T02:41:02.192Z,95.31
2022-11-16T02:46:09.110Z,95.41
2022-11-16T02:51:12.012Z,95.43
2022-11-16T02:56:14.096Z,95.32
2022-11-16T03:01:24.921Z,95.24
2022-11-16T03:06:32.355Z,95.07
2022-11-16T03:11:57.382Z,95.05
2022-11-16T03:17:01.961Z,95.11
2022-11-16T03:22:12.455Z,95.19
2022-11-16T03:27:20.712Z,95.16
2022-11-16T03:32:38.988Z,95.22
2022-11-16T03:37:41.836Z,95.15
2022-11-16T03:42:45.821Z,95.08
2022-11-16T03:47:47.889Z,95.17
2022-11-16T03:52:49.915Z,95.22
2022-11-16T03:57:51.949Z,95.23
2022-11-16T04:02:53.967Z,95.21
2022-11-16T04:08:14.766Z,95.20
2022-11-16T04:13:42.314Z,95.12
2022-11-16T04:19:03.125Z,94.98
2022-11-16T04:24:14.846Z,94.91
2022-11-16T04:29:17.194Z,94.91
2022-11-16T04:34:37.843Z,94.80
2022-11-16T04:39:39.876Z,94.88
2022-11-16T04:45:00.727Z,94.69
2022-11-16T04:50:02.983Z,94.63
2022-11-16T04:55:05.564Z,94.53
2022-11-16T05:00:08.382Z,94.49
2022-11-16T05:05:10.490Z,94.28
2022-11-16T05:10:13.351Z,94.23
2022-11-16T05:15:17.648Z,94.24
2022-11-16T05:20:38.495Z,94.22
2022-11-16T05:25:40.535Z,94.14
2022-11-16T05:30:45.718Z,93.95
2022-11-16T05:35:51.067Z,94.04
2022-11-16T05:40:53.132Z,94.10
2022-11-16T05:45:55.142Z,94.00
2022-11-16T05:51:00.473Z,93.89
2022-11-16T05:56:02.620Z,93.87
2022-11-16T06:01:04.790Z,93.83
2022-11-16T06:06:07.203Z,93.71
2022-11-16T06:11:10.383Z,93.64
2022-11-16T06:16:13.465Z,93.57
2022-11-16T06:21:17.579Z,93.58
2022-11-16T06:26:19.663Z,93.40
2022-11-16T06:31:22.410Z,93.31
2022-11-16T06:36:24.709Z,93.22
2022-11-16T06:41:26.771Z,93.14
2022-11-16T06:46:28.830Z,93.06
2022-11-16T06:51:30.847Z,93.03
2022-11-16T06:56:35.092Z,92.99
2022-11-16T07:01:37.301Z,92.81
2022-11-16T07:06:39.663Z,93.06
2022-11-16T07:11:41.744Z,93.14
2022-11-16T07:21:54.602Z,93.18
2022-11-16T07:26:56.674Z,92.82
2022-11-16T07:31:58.931Z,92.58
2022-11-16T07:37:01.008Z,92.58
2022-11-16T07:42:03.060Z,92.38
2022-11-16T07:47:06.015Z,92.27
2022-11-16T07:52:11.782Z,91.93
2022-11-16T07:57:13.968Z,91.88
2022-11-16T08:02:16.132Z,91.54
2022-11-16T08:07:19.056Z,91.08
2022-11-16T08:12:21.231Z,90.61
2022-11-16T08:17:23.330Z,90.32
2022-11-16T08:22:25.381Z,89.98
2022-11-16T08:27:27.532Z,90.08
2022-11-16T08:32:30.746Z,90.17
2022-11-16T08:37:33.850Z,90.35
2022-11-16T08:42:40.758Z,90.44
2022-11-16T08:47:45.675Z,90.06
2022-11-16T08:52:48.292Z,89.93
2022-11-16T08:57:50.333Z,90.07
2022-11-16T09:02:52.417Z,89.90
2022-11-16T09:07:54.450Z,89.32
2022-11-16T09:12:56.565Z,89.14
2022-11-16T09:17:58.642Z,89.24
2022-11-16T09:23:00.765Z,89.53
2022-11-16T09:28:02.817Z,89.56
2022-11-16T09:33:04.809Z,89.30
2022-11-16T09:38:07.562Z,89.62
2022-11-16T09:43:19.405Z,89.77
2022-11-16T09:48:23.641Z,89.83
2022-11-16T09:53:42.690Z,89.79
2022-11-16T09:59:05.877Z,89.52
2022-11-16T10:04:13.064Z,89.71
2022-11-16T10:09:16.077Z,89.50
2022-11-16T10:14:40.649Z,89.24
2022-11-16T10:19:55.119Z,89.14
2022-11-16T10:25:20.506Z,88.89
2022-11-16T10:30:23.457Z,89.53
2022-11-16T10:35:40.774Z,89.24
2022-11-16T10:40:47.597Z,89.29
2022-11-16T10:46:00.026Z,89.27
2022-11-16T10:51:02.132Z,89.07
2022-11-16T10:56:23.146Z,89.30
2022-11-16T11:01:37.858Z,89.43
2022-11-16T11:06:40.494Z,88.90
2022-11-16T11:12:00.974Z,88.51
2022-11-16T11:17:12.290Z,88.72
2022-11-16T11:22:15.278Z,88.44
2022-11-16T11:27:23.174Z,87.95
2022-11-16T11:32:38.530Z,87.81
2022-11-16T11:37:40.690Z,88.30
2022-11-16T11:43:01.899Z,88.79
2022-11-16T11:48:29.062Z,89.21
2022-11-16T11:53:48.197Z,89.07
2022-11-16T11:58:51.946Z,89.39
2022-11-16T12:04:22.887Z,89.50
2022-11-16T12:09:40.815Z,89.27
2022-11-16T12:15:27.057Z,89.29
2022-11-16T12:20:47.177Z,89.27
2022-11-16T12:26:10.719Z,89.55
2022-11-16T12:31:30.899Z,89.61
2022-11-16T12:36:35.599Z,89.97
2022-11-16T12:42:02.725Z,90.17
2022-11-16T12:47:49.462Z,90.33
2022-11-16T12:52:57.773Z,90.37
2022-11-16T12:58:24.797Z,90.52
2022-11-16T13:03:42.957Z,90.39
2022-11-16T13:09:10.892Z,90.61
2022-11-16T13:14:18.166Z,90.93
2022-11-16T13:19:21.135Z,91.55
2022-11-16T13:24:40.647Z,91.91
2022-11-16T13:29:51.563Z,92.05
2022-11-16T13:34:54.644Z,92.28
2022-11-16T13:39:59.799Z,92.31
2022-11-16T13:45:13.970Z,92.41
2022-11-16T13:50:19.677Z,92.67
2022-11-16T13:55:33.393Z,92.96
2022-11-16T14:00:38.619Z,93.13
2022-11-16T14:05:43.217Z,93.38
2022-11-16T14:10:45.219Z,93.72
2022-11-16T14:16:16.614Z,93.65
2022-11-16T14:21:18.710Z,93.65
2022-11-16T14:26:41.026Z,93.87
2022-11-16T14:32:03.646Z,94.27
2022-11-16T14:37:06.067Z,94.32
2022-11-16T14:42:18.158Z,94.20
2022-11-16T14:47:28.790Z,94.03
2022-11-16T14:52:38.847Z,94.18
2022-11-16T14:57:41.233Z,94.29
2022-11-16T15:02:51.026Z,94.39
2022-11-16T15:07:59.011Z,94.47
2022-11-16T15:13:01.266Z,94.62
2022-11-16T15:18:03.231Z,94.73
2022-11-16T15:23:14.337Z,94.92
2022-11-16T15:28:28.689Z,94.93
2022-11-16T15:33:38.227Z,94.88
2022-11-16T15:38:41.801Z,94.97
2022-11-16T15:44:12.654Z,94.95
2022-11-16T15:49:33.568Z,95.03
2022-11-16T15:54:55.929Z,95.01
2022-11-16T15:59:58.209Z,94.99
2022-11-16T16:05:00.245Z,94.84
2022-11-16T16:10:24.275Z,94.76
2022-11-16T16:15:36.194Z,95.05
2022-11-16T16:20:38.392Z,95.11
2022-11-16T16:25:41.451Z,95.30
2022-11-16T16:30:45.815Z,95.45
2022-11-16T16:35:49.851Z,95.44
2022-11-16T16:40:51.959Z,95.47
2022-11-16T16:45:54.008Z,95.40
2022-11-16T16:50:56.130Z,95.56
2022-11-16T16:55:58.170Z,95.51
2022-11-16T17:01:04.968Z,95.48
2022-11-16T17:06:07.084Z,95.47
2022-11-16T17:11:10.180Z,95.59
2022-11-16T17:16:12.428Z,95.58
2022-11-16T17:21:17.460Z,95.54
2022-11-16T17:26:20.452Z,95.53
2022-11-16T17:31:23.258Z,95.67
2022-11-16T17:36:25.353Z,95.67
2022-11-16T17:41:28.110Z,95.71
2022-11-16T17:46:30.157Z,95.79
2022-11-16T17:51:32.516Z,95.90
2022-11-16T17:56:34.686Z,95.91
2022-11-16T18:01:36.981Z,95.89
2022-11-16T18:06:39.965Z,95.85
2022-11-16T18:11:42.361Z,95.96
2022-11-16T18:16:44.465Z,95.85
2022-11-16T18:21:46.924Z,95.55
2022-11-16T18:26:48.989Z,95.55
2022-11-16T18:31:51.082Z,95.63
2022-11-16T18:36:53.176Z,95.48
2022-11-16T18:41:56.351Z,95.29
2022-11-16T18:46:58.366Z,95.35
2022-11-16T18:52:00.479Z,95.49
2022-11-16T18:57:02.523Z,95.45
2022-11-16T19:02:04.621Z,95.41
2022-11-16T19:07:07.729Z,95.27
2022-11-16T19:12:09.928Z,95.38
2022-11-16T19:17:12.024Z,95.23
2022-11-16T19:22:16.658Z,95.28
2022-11-16T19:27:32.569Z,95.48
2022-11-16T19:32:34.607Z,95.54
2022-11-16T19:37:37.529Z,95.58
2022-11-16T19:42:39.661Z,95.50
2022-11-16T19:47:41.836Z,95.51
2022-11-16T19:52:48.061Z,95.46
2022-11-16T19:57:50.334Z,95.45
2022-11-16T20:02:57.407Z,95.45
2022-11-16T20:07:59.544Z,95.46
2022-11-16T20:13:01.829Z,95.54
2022-11-16T20:18:04.042Z,95.53
2022-11-16T20:23:15.760Z,95.40
2022-11-16T20:28:18.013Z,95.24
2022-11-16T20:38:40.768Z,94.94
2022-11-16T20:43:44.002Z,94.48
2022-11-16T20:48:47.162Z,94.78
2022-11-16T20:53:50.367Z,94.81
2022-11-16T20:58:52.720Z,94.77
2022-11-16T21:03:56.388Z,94.46
2022-11-16T21:08:59.092Z,94.33
2022-11-16T21:14:16.044Z,93.42
2022-11-16T21:19:18.178Z,92.96
2022-11-16T21:24:21.775Z,92.44
2022-11-16T21:29:26.085Z,92.56
2022-11-16T21:34:33.541Z,92.73
2022-11-16T21:39:38.042Z,92.48
2022-11-16T21:44:43.077Z,92.42
2022-11-16T21:50:09.808Z,92.20
2022-11-16T21:55:11.958Z,92.05
2022-11-16T22:00:14.750Z,92.43
2022-11-16T22:05:35.687Z,92.85
2022-11-16T22:10:42.388Z,92.50
2022-11-16T22:15:44.443Z,92.14
2022-11-16T22:20:48.180Z,91.81
2022-11-16T22:25:50.221Z,91.35
2022-11-16T22:31:20.322Z,91.27
2022-11-16T22:36:22.593Z,90.89
2022-11-16T22:41:25.040Z,90.20
2022-11-16T22:46:27.616Z,90.25
2022-11-16T22:51:30.827Z,90.85
2022-11-16T22:56:33.544Z,91.18
2022-11-16T23:01:36.334Z,91.33
2022-11-16T23:06:38.374Z,91.61
2022-11-16T23:11:58.980Z,90.99
2022-11-16T23:17:01.464Z,90.84
2022-11-16T23:22:22.727Z,90.85
2022-11-16T23:27:30.765Z,91.29
2022-11-16T23:32:33.173Z,91.24
2022-11-16T23:37:35.567Z,91.11
2022-11-16T23:42:56.310Z,91.04
2022-11-16T23:47:58.568Z,90.67
2022-11-16T23:53:00.675Z,90.81
2022-11-16T23:58:02.704Z,89.92
